createdAt,value
2023-05-14T00:01:46.522Z,45.89
2023-05-14T00:04:13.419Z,48.60
2023-05-14T00:06:40.187Z,48.53
2023-05-14T00:09:06.990Z,48.41
2023-05-14T00:11:33.740Z,50.25
2023-05-14T00:14:00.701Z,44.86
2023-05-14T00:16:27.469Z,51.18
2023-05-14T00:18:54.503Z,47.59
2023-05-14T00:21:21.537Z,45.33
2023-05-14T00:23:48.227Z,46.05
2023-05-14T00:26:14.997Z,45.52
2023-05-14T00:28:44.444Z,44.38
2023-05-14T00:31:11.303Z,44.21
2023-05-14T00:33:38.263Z,46.35
2023-05-14T00:36:05.237Z,47.35
2023-05-14T00:38:32.130Z,47.06
2023-05-14T00:40:58.849Z,44.70
2023-05-14T00:43:26.036Z,43.47
2023-05-14T00:45:54.714Z,45.49
2023-05-14T00:48:23.483Z,49.74
2023-05-14T00:50:51.221Z,46.02
2023-05-14T00:53:21.470Z,45.21
2023-05-14T00:55:50.540Z,44.83
2023-05-14T00:58:18.130Z,44.13
2023-05-14T01:00:45.291Z,47.40
2023-05-14T01:03:12.131Z,47.96
2023-05-14T01:05:38.866Z,45.27
2023-05-14T01:08:12.928Z,43.55
2023-05-14T01:10:51.356Z,43.83
2023-05-14T01:13:30.273Z,41.36
2023-05-14T01:16:00.314Z,45.88
2023-05-14T01:18:28.397Z,44.59
2023-05-14T01:20:55.396Z,44.75
2023-05-14T01:23:22.944Z,44.18
2023-05-14T01:25:50.346Z,46.37
2023-05-14T01:28:19.583Z,46.01
2023-05-14T01:30:50.606Z,48.30
2023-05-14T01:33:18.907Z,47.49
2023-05-14T01:35:46.394Z,51.34
2023-05-14T01:38:17.449Z,45.44
2023-05-14T01:40:46.393Z,41.88
2023-05-14T01:43:13.899Z,42.43
2023-05-14T01:45:41.664Z,44.33
2023-05-14T01:48:08.456Z,44.36
2023-05-14T01:50:35.575Z,43.46
2023-05-14T01:53:02.443Z,42.92
2023-05-14T01:55:29.247Z,41.63
2023-05-14T01:57:56.074Z,42.27
2023-05-14T02:00:25.446Z,40.91
2023-05-14T02:02:52.832Z,40.68
2023-05-14T02:05:19.678Z,41.60
2023-05-14T02:07:46.703Z,42.32
2023-05-14T02:10:13.421Z,43.60
2023-05-14T02:12:40.723Z,42.37
2023-05-14T02:15:09.324Z,43.66
2023-05-14T02:17:36.506Z,42.09
2023-05-14T02:20:04.194Z,42.66
2023-05-14T02:22:31.213Z,40.97
2023-05-14T02:24:57.935Z,41.02
2023-05-14T02:27:25.032Z,45.69
2023-05-14T02:29:53.131Z,43.42
2023-05-14T02:32:19.946Z,43.14
2023-05-14T02:34:46.919Z,42.69
2023-05-14T02:37:13.821Z,44.41
2023-05-14T02:39:40.823Z,44.63
2023-05-14T02:42:07.789Z,44.59
2023-05-14T02:44:34.625Z,43.91
2023-05-14T02:47:01.411Z,47.28
2023-05-14T02:49:28.159Z,43.35
2023-05-14T02:51:54.949Z,42.63
2023-05-14T02:54:22.428Z,43.55
2023-05-14T02:56:49.181Z,42.54
2023-05-14T02:59:16.092Z,42.94
2023-05-14T03:01:43.409Z,44.90
2023-05-14T03:04:11.032Z,44.50
2023-05-14T03:06:37.786Z,43.93
2023-05-14T03:09:04.529Z,43.76
2023-05-14T03:11:31.381Z,45.34
2023-05-14T03:13:58.111Z,43.87
2023-05-14T03:16:24.960Z,44.39
2023-05-14T03:18:51.763Z,44.04
2023-05-14T03:21:18.784Z,44.43
2023-05-14T03:23:45.536Z,43.78
2023-05-14T03:26:12.267Z,44.36
2023-05-14T03:28:38.970Z,45.07
2023-05-14T03:31:05.868Z,45.55
2023-05-14T03:33:32.796Z,48.23
2023-05-14T03:35:59.570Z,47.45
2023-05-14T03:38:26.412Z,46.79
2023-05-14T03:40:53.188Z,44.26
2023-05-14T03:43:19.894Z,44.37
2023-05-14T03:45:52.970Z,44.58
2023-05-14T03:48:20.566Z,42.64
2023-05-14T03:50:47.958Z,44.02
2023-05-14T03:53:14.779Z,45.14
2023-05-14T03:55:41.563Z,44.75
2023-05-14T03:58:14.233Z,46.76
2023-05-14T04:00:42.733Z,45.33
2023-05-14T04:03:11.409Z,48.33
2023-05-14T04:05:38.481Z,47.18
2023-05-14T04:08:05.897Z,46.02
2023-05-14T04:10:32.926Z,46.81
2023-05-14T04:13:00.415Z,45.80
2023-05-14T04:15:31.708Z,47.15
2023-05-14T04:17:58.550Z,47.39
2023-05-14T04:20:25.628Z,45.91
2023-05-14T04:22:53.278Z,45.98
2023-05-14T04:25:20.109Z,44.83
2023-05-14T04:27:46.915Z,44.28
2023-05-14T04:30:13.787Z,48.30
2023-05-14T04:32:40.946Z,46.43
2023-05-14T04:35:10.198Z,47.69
2023-05-14T04:37:37.590Z,48.69
2023-05-14T04:40:05.837Z,47.53
2023-05-14T04:42:32.593Z,48.50
2023-05-14T04:44:59.323Z,45.65
2023-05-14T04:47:26.751Z,44.98
2023-05-14T04:49:53.942Z,46.87
2023-05-14T04:52:20.883Z,49.04
2023-05-14T04:54:47.688Z,46.96
2023-05-14T04:57:14.586Z,47.32
2023-05-14T04:59:41.314Z,45.46
2023-05-14T05:02:08.613Z,45.90
2023-05-14T05:04:35.326Z,46.96
2023-05-14T05:07:02.240Z,46.98
2023-05-14T05:09:28.987Z,49.06
2023-05-14T05:11:55.991Z,47.64
2023-05-14T05:14:22.726Z,48.80
2023-05-14T05:16:51.500Z,50.89
2023-05-14T05:19:19.734Z,47.68
2023-05-14T05:21:49.533Z,49.02
2023-05-14T05:24:16.300Z,48.82
2023-05-14T05:26:43.034Z,50.44
2023-05-14T05:29:10.034Z,48.17
2023-05-14T05:31:37.016Z,49.31
2023-05-14T05:34:04.402Z,49.92
2023-05-14T05:36:31.660Z,46.64
2023-05-14T05:38:58.393Z,44.37
2023-05-14T05:41:26.555Z,46.45
2023-05-14T05:43:53.291Z,51.40
2023-05-14T05:46:20.015Z,51.79
2023-05-14T05:48:46.691Z,47.35
2023-05-14T05:51:13.491Z,46.08
2023-05-14T05:53:40.852Z,46.01
2023-05-14T05:56:08.074Z,46.07
2023-05-14T05:58:34.806Z,48.76
2023-05-14T06:01:01.532Z,47.96
2023-05-14T06:03:28.423Z,49.05
2023-05-14T06:05:55.561Z,51.67
2023-05-14T06:08:22.306Z,47.73
2023-05-14T06:10:49.248Z,48.91
2023-05-14T06:13:15.988Z,46.93
2023-05-14T06:15:42.988Z,46.69
2023-05-14T06:18:09.733Z,48.63
2023-05-14T06:20:36.502Z,48.23
2023-05-14T06:23:03.259Z,44.54
2023-05-14T06:25:29.952Z,44.85
2023-05-14T06:27:56.877Z,44.33
2023-05-14T06:30:23.786Z,44.27
2023-05-14T06:32:51.818Z,45.36
2023-05-14T06:35:19.290Z,45.40
2023-05-14T06:37:45.997Z,43.48
2023-05-14T06:40:15.775Z,46.25
2023-05-14T06:42:42.939Z,45.39
2023-05-14T06:45:10.658Z,43.20
2023-05-14T06:47:37.473Z,42.38
2023-05-14T06:50:04.620Z,44.03
2023-05-14T06:52:31.350Z,44.46
2023-05-14T06:54:58.373Z,43.23
2023-05-14T06:57:25.187Z,45.11
2023-05-14T06:59:52.155Z,45.71
2023-05-14T07:02:18.933Z,43.67
2023-05-14T07:04:46.221Z,45.34
2023-05-14T07:07:15.511Z,46.26
2023-05-14T07:09:42.363Z,45.68
2023-05-14T07:12:09.358Z,45.38
2023-05-14T07:14:36.200Z,45.55
2023-05-14T07:17:03.011Z,45.91
2023-05-14T07:19:30.224Z,42.99
2023-05-14T07:21:58.181Z,43.22
2023-05-14T07:24:25.282Z,43.92
2023-05-14T07:26:52.273Z,43.61
2023-05-14T07:29:18.985Z,45.84
2023-05-14T07:31:45.731Z,46.47
2023-05-14T07:34:13.165Z,47.53
2023-05-14T07:36:41.227Z,46.91
2023-05-14T07:39:09.132Z,46.37
2023-05-14T07:41:35.871Z,48.85
2023-05-14T07:44:02.731Z,46.86
2023-05-14T07:46:29.387Z,45.96
2023-05-14T07:48:57.485Z,47.59
2023-05-14T07:51:24.375Z,44.16
2023-05-14T07:53:51.319Z,45.73
2023-05-14T07:56:18.047Z,47.54
2023-05-14T07:58:44.801Z,48.35
2023-05-14T08:01:12.855Z,43.82
2023-05-14T08:03:40.830Z,43.25
2023-05-14T08:06:07.636Z,44.93
2023-05-14T08:08:34.485Z,43.92
2023-05-14T08:11:01.295Z,46.06
2023-05-14T08:13:28.057Z,46.06
2023-05-14T08:15:56.482Z,49.83
2023-05-14T08:18:23.198Z,44.79
2023-05-14T08:20:50.621Z,46.00
2023-05-14T08:23:17.649Z,43.94
2023-05-14T08:25:44.420Z,47.45
2023-05-14T08:28:11.333Z,49.69
2023-05-14T08:30:38.054Z,45.48
2023-05-14T08:33:05.129Z,42.54
2023-05-14T08:35:31.983Z,42.43
2023-05-14T08:37:59.035Z,44.63
2023-05-14T08:40:27.164Z,43.38
2023-05-14T08:42:56.100Z,42.47
2023-05-14T08:45:31.550Z,41.47
2023-05-14T08:47:59.424Z,42.21
2023-05-14T08:50:28.482Z,44.85
2023-05-14T08:52:56.283Z,43.77
2023-05-14T08:55:23.609Z,46.63
2023-05-14T08:57:50.604Z,47.35
2023-05-14T09:00:18.665Z,46.00
2023-05-14T09:02:47.604Z,42.84
2023-05-14T09:05:15.262Z,47.70
2023-05-14T09:07:42.577Z,48.54
2023-05-14T09:10:10.259Z,48.05
2023-05-14T09:12:37.158Z,43.85
2023-05-14T09:15:04.966Z,47.63
2023-05-14T09:17:33.534Z,46.54
2023-05-14T09:20:00.610Z,45.94
2023-05-14T09:22:32.113Z,45.11
2023-05-14T09:25:12.388Z,47.76
2023-05-14T09:27:39.366Z,46.64
2023-05-14T09:30:11.600Z,46.91
2023-05-14T09:32:46.375Z,44.95
2023-05-14T09:35:18.074Z,46.94
2023-05-14T09:37:47.068Z,46.17
2023-05-14T09:40:15.232Z,43.47
2023-05-14T09:42:43.009Z,43.59
2023-05-14T09:45:10.700Z,42.22
2023-05-14T09:47:38.685Z,43.30
2023-05-14T09:50:06.675Z,40.31
2023-05-14T09:52:33.606Z,42.11
2023-05-14T09:55:01.444Z,41.61
2023-05-14T09:57:28.269Z,41.54
2023-05-14T09:59:55.688Z,42.54
2023-05-14T10:02:30.525Z,43.31
2023-05-14T10:07:33.662Z,40.78
2023-05-14T10:10:03.741Z,41.46
2023-05-14T10:12:38.395Z,41.72
2023-05-14T10:15:15.361Z,40.82
2023-05-14T10:17:47.465Z,40.19
2023-05-14T10:20:17.288Z,41.78
2023-05-14T10:22:44.336Z,40.08
2023-05-14T10:25:12.131Z,42.15
2023-05-14T10:27:39.913Z,40.97
2023-05-14T10:30:15.822Z,40.21
2023-05-14T10:32:44.619Z,38.62
2023-05-14T10:35:22.979Z,39.21
2023-05-14T10:37:52.088Z,37.28
2023-05-14T10:40:19.400Z,40.04
2023-05-14T10:42:47.009Z,37.97
2023-05-14T10:45:15.764Z,38.48
2023-05-14T10:47:44.755Z,37.61
2023-05-14T10:50:14.421Z,39.21
2023-05-14T10:52:43.644Z,40.01
2023-05-14T10:55:14.735Z,38.71
2023-05-14T10:57:43.510Z,42.56
2023-05-14T11:00:11.740Z,42.82
2023-05-14T11:02:40.648Z,44.93
2023-05-14T11:05:17.983Z,41.47
2023-05-14T11:07:47.226Z,40.52
2023-05-14T11:10:18.848Z,39.58
2023-05-14T11:12:50.054Z,37.94
2023-05-14T11:15:21.793Z,38.08
2023-05-14T11:17:49.758Z,37.55
2023-05-14T11:20:18.080Z,36.63
2023-05-14T11:22:47.105Z,37.29
2023-05-14T11:25:15.265Z,38.82
2023-05-14T11:27:43.898Z,41.71
2023-05-14T11:30:19.519Z,41.24
2023-05-14T11:32:48.641Z,38.17
2023-05-14T11:35:16.850Z,36.83
2023-05-14T11:37:52.768Z,34.97
2023-05-14T11:40:20.035Z,36.21
2023-05-14T11:42:46.956Z,39.82
2023-05-14T11:45:27.309Z,36.48
2023-05-14T11:47:57.924Z,36.57
2023-05-14T11:50:25.249Z,36.09
2023-05-14T11:52:58.026Z,34.84
2023-05-14T11:55:25.015Z,40.09
2023-05-14T11:57:52.240Z,37.32
2023-05-14T12:00:22.317Z,36.80
2023-05-14T12:02:50.071Z,37.03
2023-05-14T12:05:17.452Z,35.82
2023-05-14T12:07:46.121Z,37.85
2023-05-14T12:10:14.419Z,33.19
2023-05-14T12:12:46.282Z,32.81
2023-05-14T12:15:14.576Z,29.96
2023-05-14T12:17:41.618Z,34.52
2023-05-14T12:20:11.120Z,32.47
2023-05-14T12:22:38.838Z,33.39
2023-05-14T12:25:13.766Z,34.38
2023-05-14T12:27:41.189Z,35.12
2023-05-14T12:32:41.405Z,33.80
2023-05-14T12:35:09.526Z,36.29
2023-05-14T12:37:37.695Z,37.45
2023-05-14T12:40:11.610Z,38.92
2023-05-14T12:42:38.815Z,35.36
2023-05-14T12:45:08.174Z,35.83
2023-05-14T12:47:36.454Z,34.56
2023-05-14T12:50:03.967Z,33.81
2023-05-14T12:55:01.543Z,30.86
2023-05-14T12:57:30.296Z,30.71
2023-05-14T12:59:58.256Z,32.61
2023-05-14T13:02:25.593Z,33.25
2023-05-14T13:04:52.370Z,31.15
2023-05-14T13:07:19.518Z,31.92
2023-05-14T13:09:46.441Z,30.59
2023-05-14T13:12:13.642Z,31.02
2023-05-14T13:14:40.653Z,34.53
2023-05-14T13:17:08.283Z,34.77
2023-05-14T13:19:35.188Z,32.55
2023-05-14T13:22:02.076Z,32.07
2023-05-14T13:24:30.460Z,31.53
2023-05-14T13:26:57.249Z,30.02
2023-05-14T13:29:25.983Z,30.70
2023-05-14T13:31:53.294Z,33.60
2023-05-14T13:34:20.176Z,31.85
2023-05-14T13:36:47.460Z,33.17
2023-05-14T13:39:17.802Z,35.25
2023-05-14T13:41:45.686Z,33.55
2023-05-14T13:44:12.519Z,33.96
2023-05-14T13:46:39.794Z,33.22
2023-05-14T13:49:06.680Z,35.72
2023-05-14T13:51:33.715Z,35.03
2023-05-14T13:54:01.002Z,33.48
2023-05-14T13:56:27.958Z,32.62
2023-05-14T13:58:56.373Z,34.98
2023-05-14T14:01:23.716Z,32.05
2023-05-14T14:03:50.539Z,30.94
2023-05-14T14:06:17.672Z,32.71
2023-05-14T14:08:45.828Z,31.40
2023-05-14T14:11:14.277Z,35.04
2023-05-14T14:13:42.056Z,33.59
2023-05-14T14:16:10.775Z,30.30
2023-05-14T14:18:37.576Z,30.23
2023-05-14T14:21:04.847Z,29.55
2023-05-14T14:23:31.632Z,31.16
2023-05-14T14:25:58.410Z,31.17
2023-05-14T14:28:26.452Z,29.42
2023-05-14T14:30:53.376Z,33.05
2023-05-14T14:33:20.676Z,33.48
2023-05-14T14:35:47.852Z,32.07
2023-05-14T14:38:16.181Z,33.38
2023-05-14T14:40:43.000Z,32.14
2023-05-14T14:43:10.315Z,33.72
2023-05-14T14:45:37.150Z,33.44
2023-05-14T14:48:31.822Z,31.95
2023-05-14T14:51:00.282Z,33.68
2023-05-14T14:53:27.604Z,32.87
2023-05-14T14:55:54.433Z,33.55
2023-05-14T14:58:21.498Z,33.93
2023-05-14T15:00:51.281Z,32.30
2023-05-14T15:03:18.943Z,31.13
2023-05-14T15:05:47.170Z,33.30
2023-05-14T15:08:14.770Z,31.23
2023-05-14T15:10:42.017Z,29.43
2023-05-14T15:13:09.752Z,31.20
2023-05-14T15:15:37.521Z,30.99
2023-05-14T15:18:05.097Z,29.70
2023-05-14T15:20:32.200Z,30.98
2023-05-14T15:22:58.966Z,31.71
2023-05-14T15:25:26.982Z,29.83
2023-05-14T15:27:53.905Z,29.31
2023-05-14T15:30:21.144Z,27.60
2023-05-14T15:32:48.075Z,27.39
2023-05-14T15:35:15.133Z,28.47
2023-05-14T15:37:44.295Z,28.09
2023-05-14T15:40:12.530Z,26.62
2023-05-14T15:42:42.185Z,25.62
2023-05-14T15:45:10.981Z,26.98
2023-05-14T15:47:38.118Z,28.88
2023-05-14T15:50:05.796Z,35.39
2023-05-14T15:52:32.593Z,34.01
2023-05-14T15:55:00.923Z,36.59
2023-05-14T15:57:27.744Z,36.74
2023-05-14T15:59:54.924Z,38.46
2023-05-14T16:02:21.711Z,37.61
2023-05-14T16:04:49.745Z,38.74
2023-05-14T16:07:18.018Z,38.33
2023-05-14T16:09:46.401Z,38.04
2023-05-14T16:12:14.416Z,39.48
2023-05-14T16:14:42.174Z,40.38
2023-05-14T16:17:09.337Z,41.28
2023-05-14T16:19:36.123Z,40.48
2023-05-14T16:22:03.157Z,42.18
2023-05-14T16:24:30.840Z,41.95
2023-05-14T16:26:58.880Z,43.67
2023-05-14T16:29:25.705Z,45.72
2023-05-14T16:31:52.725Z,42.60
2023-05-14T16:34:19.749Z,44.14
2023-05-14T16:36:48.133Z,44.98
2023-05-14T16:39:14.922Z,42.39
2023-05-14T16:41:42.028Z,43.72
2023-05-14T16:44:08.854Z,42.71
2023-05-14T16:46:35.790Z,41.34
2023-05-14T16:49:03.187Z,40.59
2023-05-14T16:51:30.066Z,39.59
2023-05-14T16:53:57.191Z,43.48
2023-05-14T16:56:24.149Z,44.69
2023-05-14T16:58:51.058Z,43.62
2023-05-14T17:01:18.932Z,41.51
2023-05-14T17:03:48.173Z,44.95
2023-05-14T17:06:15.145Z,46.01
2023-05-14T17:08:42.325Z,46.80
2023-05-14T17:11:09.212Z,45.12
2023-05-14T17:13:36.094Z,45.48
2023-05-14T17:16:03.591Z,43.09
2023-05-14T17:18:30.643Z,45.11
2023-05-14T17:20:58.696Z,43.85
2023-05-14T17:23:25.493Z,43.27
2023-05-14T17:28:19.831Z,43.33
2023-05-14T17:30:47.089Z,40.52
2023-05-14T17:33:14.863Z,42.85
2023-05-14T17:35:43.836Z,42.32
2023-05-14T17:38:10.558Z,40.98
2023-05-14T17:40:37.510Z,38.25
2023-05-14T17:43:04.545Z,40.60
2023-05-14T17:45:42.576Z,41.53
2023-05-14T17:48:20.083Z,41.27
2023-05-14T17:50:46.954Z,41.11
2023-05-14T17:53:14.394Z,43.55
2023-05-14T17:55:43.786Z,39.88
2023-05-14T17:58:13.439Z,42.19
2023-05-14T18:00:40.666Z,43.08
2023-05-14T18:03:10.638Z,44.16
2023-05-14T18:05:37.511Z,42.95
2023-05-14T18:08:04.730Z,41.64
2023-05-14T18:10:33.441Z,40.29
2023-05-14T18:13:00.286Z,40.21
2023-05-14T18:15:27.688Z,43.00
2023-05-14T18:17:54.609Z,43.34
2023-05-14T18:20:21.990Z,41.99
2023-05-14T18:22:51.369Z,43.12
2023-05-14T18:25:19.405Z,43.01
2023-05-14T18:27:47.470Z,43.69
2023-05-14T18:30:15.992Z,44.06
2023-05-14T18:32:44.606Z,43.56
2023-05-14T18:35:12.591Z,42.79
2023-05-14T18:37:39.583Z,42.10
2023-05-14T18:40:07.513Z,41.24
2023-05-14T18:42:35.101Z,42.98
2023-05-14T18:45:03.603Z,43.14
2023-05-14T18:47:30.532Z,42.77
2023-05-14T18:49:59.756Z,44.36
2023-05-14T18:52:27.025Z,46.80
2023-05-14T18:54:57.455Z,42.35
2023-05-14T18:57:27.498Z,41.99
2023-05-14T18:59:54.259Z,42.29
2023-05-14T19:02:21.340Z,42.24
2023-05-14T19:04:52.778Z,44.46
2023-05-14T19:07:21.456Z,46.93
2023-05-14T19:09:49.889Z,46.27
2023-05-14T19:12:16.712Z,41.69
2023-05-14T19:14:43.907Z,43.68
2023-05-14T19:17:11.094Z,43.38
2023-05-14T19:19:39.340Z,42.98
2023-05-14T19:22:07.125Z,41.09
2023-05-14T19:24:36.329Z,42.35
2023-05-14T19:27:03.830Z,43.20
2023-05-14T19:29:33.057Z,42.41
2023-05-14T19:32:00.724Z,42.35
2023-05-14T19:34:27.901Z,45.16
2023-05-14T19:36:54.869Z,44.25
2023-05-14T19:39:22.022Z,46.02
2023-05-14T19:41:50.399Z,45.58
2023-05-14T19:44:17.433Z,44.25
2023-05-14T19:46:46.300Z,44.06
2023-05-14T19:49:13.596Z,44.86
2023-05-14T19:51:40.578Z,45.08
2023-05-14T19:54:08.089Z,44.77
2023-05-14T19:56:36.254Z,44.61
2023-05-14T19:59:07.294Z,44.47
2023-05-14T20:01:35.870Z,42.28
2023-05-14T20:04:04.017Z,41.18
2023-05-14T20:06:32.206Z,41.21
2023-05-14T20:09:00.390Z,42.00
2023-05-14T20:11:27.640Z,41.21
2023-05-14T20:13:55.302Z,43.80
2023-05-14T20:16:23.583Z,43.45
2023-05-14T20:18:54.007Z,42.57
2023-05-14T20:21:21.247Z,41.69
2023-05-14T20:23:49.650Z,41.26
2023-05-14T20:26:16.785Z,42.86
2023-05-14T20:28:43.732Z,41.54
2023-05-14T20:31:10.714Z,42.92
2023-05-14T20:33:37.774Z,44.88
2023-05-14T20:36:06.823Z,44.10
2023-05-14T20:38:35.217Z,43.48
2023-05-14T20:41:04.117Z,43.80
2023-05-14T20:43:31.397Z,43.47
2023-05-14T20:46:01.028Z,43.94
2023-05-14T20:48:27.769Z,42.77
2023-05-14T20:50:54.467Z,41.07
2023-05-14T20:53:21.347Z,42.02
2023-05-14T20:55:48.111Z,46.05
2023-05-14T20:58:15.096Z,44.11
2023-05-14T21:00:41.828Z,44.04
2023-05-14T21:03:08.912Z,44.25
2023-05-14T21:05:36.324Z,43.82
2023-05-14T21:08:03.045Z,44.14
2023-05-14T21:10:30.048Z,43.48
2023-05-14T21:12:56.771Z,44.33
2023-05-14T21:15:23.990Z,45.35
2023-05-14T21:17:51.098Z,45.45
2023-05-14T21:20:17.902Z,44.54
2023-05-14T21:22:45.140Z,43.20
2023-05-14T21:25:11.848Z,43.66
2023-05-14T21:27:38.832Z,42.00
2023-05-14T21:30:06.708Z,42.73
2023-05-14T21:32:33.433Z,43.62
2023-05-14T21:35:00.373Z,43.90
2023-05-14T21:37:27.132Z,41.70
2023-05-14T21:39:54.102Z,43.85
2023-05-14T21:42:21.395Z,42.94
2023-05-14T21:44:48.066Z,44.07
2023-05-14T21:47:16.365Z,41.82
2023-05-14T21:49:43.653Z,41.71
2023-05-14T21:52:10.990Z,42.32
2023-05-14T21:54:37.924Z,41.42
2023-05-14T21:57:04.834Z,43.93
2023-05-14T21:59:31.621Z,41.90
2023-05-14T22:04:27.903Z,41.92
2023-05-14T22:06:54.680Z,41.44
2023-05-14T22:09:21.667Z,40.96
2023-05-14T22:11:48.419Z,42.37
2023-05-14T22:14:15.158Z,42.14
2023-05-14T22:16:41.886Z,41.89
2023-05-14T22:19:08.647Z,42.43
2023-05-14T22:21:36.030Z,44.73
2023-05-14T22:24:02.798Z,43.76
2023-05-14T22:26:29.704Z,43.86
2023-05-14T22:28:57.704Z,43.72
2023-05-14T22:31:24.895Z,42.45
2023-05-14T22:33:52.176Z,41.75
2023-05-14T22:36:18.879Z,43.96
2023-05-14T22:38:46.239Z,44.61
2023-05-14T22:41:12.960Z,44.03
2023-05-14T22:43:39.756Z,46.79
2023-05-14T22:46:07.247Z,45.12
2023-05-14T22:48:34.071Z,44.31
2023-05-14T22:51:01.130Z,44.13
2023-05-14T22:53:28.003Z,45.23
2023-05-14T22:55:54.924Z,47.77
2023-05-14T22:58:22.143Z,45.64
2023-05-14T23:00:48.839Z,47.03
2023-05-14T23:03:16.026Z,44.80
2023-05-14T23:05:42.754Z,46.56
2023-05-14T23:08:09.795Z,47.21
2023-05-14T23:10:37.155Z,46.27
2023-05-14T23:13:04.264Z,44.75
2023-05-14T23:15:31.650Z,46.68
2023-05-14T23:17:58.493Z,44.31
2023-05-14T23:20:25.340Z,45.46
2023-05-14T23:22:53.017Z,45.38
2023-05-14T23:25:20.632Z,46.12
2023-05-14T23:27:48.149Z,46.64
2023-05-14T23:30:15.305Z,47.33
2023-05-14T23:32:42.074Z,47.11
2023-05-14T23:35:09.672Z,48.55
2023-05-14T23:37:41.700Z,50.71
2023-05-14T23:40:09.835Z,46.96
2023-05-14T23:42:36.912Z,50.08
2023-05-14T23:45:04.210Z,48.77
2023-05-14T23:47:31.607Z,49.68
2023-05-14T23:49:58.544Z,48.36
2023-05-14T23:52:25.366Z,48.01
2023-05-14T23:54:52.701Z,49.30
2023-05-14T23:57:19.438Z,50.05
2023-05-14T23:59:46.572Z,49.29
